Time;durP1;ratioP1;P1;durP2;ratioP2;P2;SDS_P1;SDS_P2;PMS_P1;PMS_P2;Temp;Humidity;BMP_temperature;BMP_pressure;BME280_temperature;BME280_humidity;BME280_pressure;Samples;Min_cycle;Max_cycle;Signal;HPM_P1;HPM_P2
2022/12/23 00:00:16;;;;;;;21.20;4.57;;;9.90;99.90;;;;;;5049942;28;20477;-49
2022/12/23 00:02:42;;;;;;;22.27;4.63;;;9.90;99.90;;;;;;5050146;28;20040;-52
2022/12/23 00:05:08;;;;;;;18.40;4.87;;;9.90;99.90;;;;;;5050475;28;20017;-52
2022/12/23 00:07:34;;;;;;;22.13;5.40;;;9.90;99.90;;;;;;5049966;28;20504;-52
2022/12/23 00:09:59;;;;;;;18.83;4.77;;;9.90;99.90;;;;;;5049980;28;20037;-49
2022/12/23 00:15:11;;;;;;;15.70;5.20;;;9.90;99.90;;;;;;5053203;28;20489;-53
2022/12/23 00:17:41;;;;;;;21.23;5.53;;;9.90;99.90;;;;;;5053874;28;20033;-52
2022/12/23 00:20:09;;;;;;;17.27;4.57;;;10.00;99.90;;;;;;5053771;28;20568;-53
2022/12/23 00:25:38;;;;;;;17.10;4.97;;;9.90;99.90;;;;;;5053891;28;20078;-54
2022/12/23 00:28:16;;;;;;;12.20;4.97;;;9.90;99.90;;;;;;5053837;28;20495;-54
2022/12/23 00:30:54;;;;;;;17.03;4.93;;;9.90;99.90;;;;;;5053545;28;20025;-53
2022/12/23 00:33:25;;;;;;;21.83;5.47;;;10.00;99.90;;;;;;5053884;28;20053;-53
2022/12/23 00:35:51;;;;;;;16.67;5.27;;;10.00;99.90;;;;;;5053621;28;20041;-52
2022/12/23 00:43:49;;;;;;;26.17;7.37;;;10.10;99.90;;;;;;5053738;28;20035;-53
2022/12/23 00:46:15;;;;;;;18.93;6.73;;;10.10;99.90;;;;;;5053528;28;20021;-52
2022/12/23 00:51:25;;;;;;;20.30;6.50;;;10.20;99.90;;;;;;5053695;28;20135;-54
2022/12/23 00:53:50;;;;;;;19.57;7.37;;;10.20;99.90;;;;;;5053561;28;20501;-52
2022/12/23 00:56:16;;;;;;;20.23;6.97;;;10.20;99.90;;;;;;5053540;28;20029;-52
2022/12/23 00:58:42;;;;;;;22.17;7.63;;;10.20;99.90;;;;;;5053243;28;20029;-52
2022/12/23 01:06:36;;;;;;;18.77;7.30;;;10.20;99.90;;;;;;5053199;28;20305;-51
2022/12/23 01:09:02;;;;;;;23.47;6.97;;;10.20;99.90;;;;;;5053204;28;20460;-52
2022/12/23 01:11:28;;;;;;;21.50;7.20;;;10.20;99.90;;;;;;5053066;28;20083;-49
2022/12/23 01:13:53;;;;;;;19.93;7.60;;;10.20;99.90;;;;;;5053324;28;20036;-50
2022/12/23 01:16:19;;;;;;;12.97;5.63;;;10.20;99.90;;;;;;5053156;28;20029;-51
2022/12/23 01:18:45;;;;;;;18.63;5.60;;;10.10;99.90;;;;;;5053003;28;20469;-50
2022/12/23 01:21:12;;;;;;;15.53;5.70;;;10.20;99.90;;;;;;5053038;28;20033;-52
2022/12/23 01:23:38;;;;;;;10.33;4.87;;;10.20;99.90;;;;;;5053080;28;20452;-52
2022/12/23 01:26:05;;;;;;;19.90;5.80;;;10.20;99.90;;;;;;5052068;28;20045;-52
2022/12/23 01:28:32;;;;;;;16.13;5.13;;;10.20;99.90;;;;;;5051634;28;20420;-49
2022/12/23 01:30:59;;;;;;;16.00;5.53;;;10.20;99.90;;;;;;5052844;28;20033;-52
2022/12/23 01:33:25;;;;;;;14.80;5.10;;;10.20;99.90;;;;;;5052843;28;20033;-50
2022/12/23 01:35:51;;;;;;;15.23;5.87;;;10.20;99.90;;;;;;5052940;28;20040;-52
2022/12/23 01:38:16;;;;;;;20.73;6.87;;;10.10;99.90;;;;;;5052509;28;20064;-50
2022/12/23 01:40:44;;;;;;;14.90;6.60;;;10.10;99.90;;;;;;5052286;28;20029;-53
2022/12/23 01:43:18;;;;;;;19.07;6.63;;;10.10;99.90;;;;;;5052646;28;20100;-49
2022/12/23 01:45:44;;;;;;;19.63;6.43;;;10.10;99.90;;;;;;5052875;28;20033;-52
2022/12/23 01:48:21;;;;;;;17.80;6.10;;;10.10;99.90;;;;;;5052214;28;20052;-52
2022/12/23 01:50:52;;;;;;;15.77;6.27;;;10.10;99.90;;;;;;5052081;28;20039;-53
2022/12/23 01:53:17;;;;;;;18.00;7.27;;;10.10;99.90;;;;;;5052362;28;20110;-50
2022/12/23 01:55:54;;;;;;;14.70;7.00;;;10.10;99.90;;;;;;5052495;28;20068;-52
2022/12/23 01:58:29;;;;;;;19.53;7.57;;;10.10;99.90;;;;;;5052080;28;20064;-52
2022/12/23 02:03:41;;;;;;;16.17;7.90;;;10.10;99.90;;;;;;5052180;28;20064;-52
2022/12/23 02:09:17;;;;;;;21.27;7.53;;;10.10;99.90;;;;;;5051996;28;20037;-52
2022/12/23 02:11:49;;;;;;;18.50;7.37;;;10.10;99.90;;;;;;5051888;28;20024;-52
2022/12/23 02:17:39;;;;;;;20.60;8.10;;;10.10;99.90;;;;;;5051727;28;20079;-50
2022/12/23 02:20:42;;;;;;;16.77;7.90;;;10.10;99.90;;;;;;5051559;28;20032;-51
2022/12/23 02:23:46;;;;;;;17.23;7.47;;;10.10;99.90;;;;;;5052017;28;20484;-52
2022/12/23 02:26:30;;;;;;;21.57;8.23;;;10.20;99.90;;;;;;5051788;28;20040;-52
2022/12/23 02:28:59;;;;;;;22.60;8.10;;;10.10;99.90;;;;;;5051582;28;20047;-53
2022/12/23 02:31:56;;;;;;;20.75;8.57;;;10.10;99.90;;;;;;5051627;28;20116;-53
2022/12/23 02:34:28;;;;;;;18.07;8.47;;;10.20;99.90;;;;;;5051660;28;20045;-52
2022/12/23 02:37:35;;;;;;;20.63;8.77;;;10.10;99.90;;;;;;5051154;28;20090;-52
2022/12/23 02:40:09;;;;;;;20.33;8.80;;;10.10;99.90;;;;;;5042975;28;20489;-51
2022/12/23 02:42:43;;;;;;;21.10;9.33;;;10.20;99.90;;;;;;5051233;28;20047;-51
2022/12/23 02:45:19;;;;;;;23.03;9.00;;;10.20;99.90;;;;;;5051380;28;20547;-52
2022/12/23 02:47:59;;;;;;;26.50;10.87;;;10.20;99.90;;;;;;5051201;28;20032;-52
2022/12/23 02:50:31;;;;;;;22.43;9.83;;;10.10;99.90;;;;;;5051085;28;20025;-52
2022/12/23 02:53:02;;;;;;;20.47;10.00;;;10.10;99.90;;;;;;5051364;28;20033;-53
2022/12/23 02:55:32;;;;;;;22.50;10.07;;;10.10;99.90;;;;;;5051205;28;20367;-52
2022/12/23 02:58:03;;;;;;;22.87;11.40;;;10.10;99.90;;;;;;5050904;28;20389;-50
2022/12/23 03:00:29;;;;;;;23.80;10.63;;;10.00;99.90;;;;;;5050827;28;20025;-50
2022/12/23 03:02:55;;;;;;;24.37;10.60;;;10.00;99.90;;;;;;5051001;28;20029;-52
2022/12/23 03:05:27;;;;;;;21.97;11.07;;;10.00;99.90;;;;;;5051016;28;20029;-53
2022/12/23 03:08:01;;;;;;;23.47;11.30;;;10.00;99.90;;;;;;5050630;28;20029;-49
2022/12/23 03:10:55;;;;;;;20.50;10.93;;;10.00;99.90;;;;;;5050619;28;20033;-52
2022/12/23 03:13:33;;;;;;;20.80;10.53;;;10.00;99.90;;;;;;5050826;28;20041;-47
2022/12/23 03:16:12;;;;;;;21.67;10.00;;;10.10;99.90;;;;;;5051387;28;20029;-49
2022/12/23 03:19:14;;;;;;;19.77;10.10;;;10.10;99.90;;;;;;5050479;28;20087;-51
2022/12/23 03:22:22;;;;;;;18.50;10.23;;;10.10;99.90;;;;;;5050661;28;20502;-52
2022/12/23 03:25:05;;;;;;;22.65;9.88;;;10.10;99.90;;;;;;5017552;28;20052;-47
2022/12/23 03:28:00;;;;;;;21.00;10.80;;;10.10;99.90;;;;;;5050364;28;20110;-50
2022/12/23 03:30:28;;;;;;;23.03;10.40;;;10.20;99.90;;;;;;5050342;28;20028;-52
2022/12/23 03:33:15;;;;;;;20.63;10.87;;;10.20;99.90;;;;;;5050504;28;20073;-47
2022/12/23 03:35:49;;;;;;;22.67;11.17;;;10.10;99.90;;;;;;5050473;28;20111;-48
2022/12/23 03:38:18;;;;;;;20.93;10.87;;;10.10;99.90;;;;;;5050283;28;20048;-46
2022/12/23 03:40:48;;;;;;;22.73;11.83;;;10.10;99.90;;;;;;5049873;28;20056;-48
2022/12/23 03:43:21;;;;;;;21.77;11.27;;;10.10;99.90;;;;;;5050511;28;20032;-49
2022/12/23 03:46:00;;;;;;;24.13;11.87;;;10.10;99.90;;;;;;5050395;28;20474;-46
2022/12/23 03:48:28;;;;;;;;;;;10.20;99.90;;;;;;5050948;28;20024;-49
2022/12/23 03:51:01;;;;;;;21.13;12.02;;;10.10;99.90;;;;;;5054361;28;19912;-51
2022/12/23 03:53:58;;;;;;;26.33;12.13;;;10.10;99.90;;;;;;5054494;28;20363;-50
2022/12/23 03:56:30;;;;;;;24.57;12.00;;;10.10;99.90;;;;;;5046010;28;20040;-49
2022/12/23 03:58:57;;;;;;;24.97;12.47;;;10.10;99.90;;;;;;5054157;28;20040;-49
2022/12/23 04:01:48;;;;;;;25.37;12.73;;;10.10;99.90;;;;;;5054235;28;20033;-49
2022/12/23 04:04:24;;;;;;;26.50;13.23;;;10.00;99.90;;;;;;5054163;28;20112;-49
2022/12/23 04:07:01;;;;;;;29.37;12.10;;;10.00;99.90;;;;;;5053990;28;20091;-49
2022/12/23 04:09:28;;;;;;;24.40;12.73;;;10.00;99.90;;;;;;5054281;28;20385;-47
2022/12/23 04:11:54;;;;;;;26.30;12.63;;;10.00;99.90;;;;;;5054008;28;20037;-47
2022/12/23 04:14:21;;;;;;;24.27;13.17;;;10.00;99.90;;;;;;5054150;28;20108;-49
2022/12/23 04:16:51;;;;;;;26.40;13.00;;;10.00;99.90;;;;;;5053762;28;20025;-46
2022/12/23 04:19:17;;;;;;;29.03;13.37;;;10.00;99.90;;;;;;5053950;28;20056;-47
2022/12/23 04:21:43;;;;;;;27.70;13.33;;;10.00;99.90;;;;;;5053793;28;20029;-49
2022/12/23 04:24:08;;;;;;;25.70;12.70;;;10.00;99.90;;;;;;5053874;28;20078;-49
2022/12/23 04:26:34;;;;;;;26.80;13.27;;;10.00;99.90;;;;;;5053640;28;20036;-47
2022/12/23 04:29:00;;;;;;;25.27;13.17;;;10.00;99.90;;;;;;5053475;28;20215;-48
2022/12/23 04:31:25;;;;;;;27.47;13.60;;;10.00;99.90;;;;;;5053571;28;20032;-51
2022/12/23 04:33:51;;;;;;;25.50;12.50;;;10.00;99.90;;;;;;5053812;28;20114;-47
2022/12/23 04:36:17;;;;;;;27.13;12.63;;;10.00;99.90;;;;;;5053422;28;20036;-47
2022/12/23 04:38:42;;;;;;;26.77;13.37;;;9.90;99.90;;;;;;5053432;28;20040;-47
2022/12/23 04:41:08;;;;;;;27.03;12.83;;;9.90;99.90;;;;;;5053323;28;20409;-47
2022/12/23 04:43:34;;;;;;;28.03;12.83;;;9.90;99.90;;;;;;5053447;28;20112;-51
2022/12/23 04:45:59;;;;;;;26.43;14.57;;;9.90;99.90;;;;;;5053790;28;20036;-50
2022/12/23 04:48:25;;;;;;;25.23;12.90;;;9.90;99.90;;;;;;5053298;28;20025;-47
2022/12/23 04:50:51;;;;;;;32.53;15.10;;;9.80;99.90;;;;;;5053158;28;20073;-51
2022/12/23 04:53:16;;;;;;;27.13;12.57;;;9.80;99.90;;;;;;5053378;28;20036;-48
2022/12/23 04:55:42;;;;;;;24.77;13.07;;;9.90;99.90;;;;;;5053314;28;20025;-48
2022/12/23 04:58:08;;;;;;;23.00;11.97;;;9.90;99.90;;;;;;5053061;28;20119;-48
2022/12/23 05:00:33;;;;;;;26.40;11.60;;;9.90;99.90;;;;;;5051383;28;20036;-48
2022/12/23 05:02:59;;;;;;;27.63;12.57;;;9.90;99.90;;;;;;5053169;28;20477;-50
2022/12/23 05:05:25;;;;;;;21.33;11.87;;;9.80;99.90;;;;;;5052979;28;20032;-52
2022/12/23 05:07:51;;;;;;;27.73;12.73;;;9.80;99.90;;;;;;5052934;28;20528;-51
2022/12/23 05:10:16;;;;;;;29.23;12.70;;;9.80;99.90;;;;;;5052601;28;20033;-49
2022/12/23 05:12:42;;;;;;;22.40;11.80;;;9.80;99.90;;;;;;5053072;28;20031;-47
2022/12/23 05:15:08;;;;;;;25.47;11.97;;;9.80;99.90;;;;;;5052804;28;20497;-51
2022/12/23 05:17:34;;;;;;;25.00;12.70;;;9.80;99.90;;;;;;5052667;28;20025;-49
2022/12/23 05:20:00;;;;;;;29.03;12.67;;;9.80;99.90;;;;;;5052409;28;20458;-47
2022/12/23 05:22:25;;;;;;;26.03;12.77;;;9.80;99.90;;;;;;5052699;28;20116;-52
2022/12/23 05:24:51;;;;;;;22.47;12.87;;;9.80;99.90;;;;;;5052812;28;20240;-47
2022/12/23 05:27:17;;;;;;;34.27;15.57;;;9.80;99.90;;;;;;5052437;28;20029;-50
2022/12/23 05:29:42;;;;;;;31.10;14.67;;;9.80;99.90;;;;;;5052263;28;20029;-50
2022/12/23 05:32:08;;;;;;;22.87;12.07;;;9.90;99.90;;;;;;5052519;28;20029;-50
2022/12/23 05:34:34;;;;;;;25.40;12.10;;;9.90;99.90;;;;;;5052702;28;20060;-50
2022/12/23 05:36:59;;;;;;;22.20;11.47;;;9.90;99.90;;;;;;5052366;28;20534;-49
2022/12/23 05:39:25;;;;;;;22.43;11.50;;;9.90;99.90;;;;;;5052198;28;20115;-50
2022/12/23 05:41:51;;;;;;;22.47;10.40;;;9.90;99.90;;;;;;5052171;28;20118;-50
2022/12/23 05:44:16;;;;;;;20.10;10.40;;;9.90;99.90;;;;;;5052238;28;20036;-51
2022/12/23 05:46:42;;;;;;;22.43;10.47;;;9.90;99.90;;;;;;5052180;28;20025;-50
2022/12/23 05:49:08;;;;;;;21.70;11.60;;;9.90;99.90;;;;;;5052048;28;20041;-49
2022/12/23 05:51:33;;;;;;;21.80;11.03;;;9.90;99.90;;;;;;5052161;28;20032;-51
2022/12/23 05:53:59;;;;;;;22.77;11.90;;;9.90;99.90;;;;;;5052570;28;20040;-51
2022/12/23 05:56:25;;;;;;;20.77;11.30;;;9.90;99.90;;;;;;5051988;28;20029;-52
2022/12/23 05:58:50;;;;;;;22.57;11.27;;;9.90;99.90;;;;;;5051844;28;20044;-49
2022/12/23 06:01:16;;;;;;;17.90;11.47;;;9.90;99.90;;;;;;5051978;28;20048;-50
2022/12/23 06:03:42;;;;;;;20.60;11.53;;;9.90;99.90;;;;;;5052257;28;20025;-50
2022/12/23 06:06:07;;;;;;;21.10;12.50;;;10.00;99.90;;;;;;5050628;28;20031;-50
2022/12/23 06:08:33;;;;;;;24.27;11.87;;;9.90;99.90;;;;;;5050187;28;20036;-51
2022/12/23 06:10:59;;;;;;;28.80;12.97;;;9.90;99.90;;;;;;5051728;28;20036;-48
2022/12/23 06:13:25;;;;;;;24.03;12.57;;;9.90;99.90;;;;;;5051422;28;20059;-51
2022/12/23 06:15:50;;;;;;;25.70;12.70;;;9.90;99.90;;;;;;5051916;28;20024;-52
2022/12/23 06:18:16;;;;;;;30.23;13.43;;;9.80;99.90;;;;;;5051603;28;20071;-51
2022/12/23 06:20:46;;;;;;;23.90;13.23;;;9.80;99.90;;;;;;5051510;28;20044;-51
2022/12/23 06:23:12;;;;;;;24.87;13.40;;;9.90;99.90;;;;;;5051700;28;20508;-52
2022/12/23 06:25:38;;;;;;;31.07;13.73;;;9.90;99.90;;;;;;5051629;28;20128;-52
2022/12/23 06:28:04;;;;;;;27.97;14.37;;;9.90;99.90;;;;;;5051057;28;20112;-52
2022/12/23 06:30:29;;;;;;;24.20;13.40;;;9.90;99.90;;;;;;5051100;28;20039;-52
2022/12/23 06:32:55;;;;;;;27.27;13.87;;;9.90;99.90;;;;;;5051487;28;20116;-53
2022/12/23 06:35:21;;;;;;;31.70;14.07;;;9.90;99.90;;;;;;5051313;28;20040;-52
2022/12/23 06:37:46;;;;;;;25.00;13.67;;;9.90;99.90;;;;;;5051052;28;20102;-52
2022/12/23 06:40:12;;;;;;;31.37;14.80;;;9.90;99.90;;;;;;5050834;28;20029;-51
2022/12/23 06:42:38;;;;;;;44.00;15.53;;;9.90;99.90;;;;;;5050886;28;20068;-52
2022/12/23 06:45:04;;;;;;;29.73;13.97;;;9.90;99.90;;;;;;5051313;28;20045;-52
2022/12/23 06:47:30;;;;;;;28.63;13.90;;;9.90;99.90;;;;;;5050892;28;20036;-50
2022/12/23 06:49:56;;;;;;;27.43;14.63;;;9.90;99.90;;;;;;5050813;28;20036;-51
2022/12/23 06:52:21;;;;;;;26.23;14.13;;;9.80;99.90;;;;;;5050990;28;20571;-52
2022/12/23 06:54:47;;;;;;;35.20;14.53;;;9.80;99.90;;;;;;5051028;28;20061;-52
2022/12/23 06:57:13;;;;;;;34.37;14.37;;;9.80;99.90;;;;;;5050621;28;20029;-50
2022/12/23 06:59:39;;;;;;;29.73;13.20;;;9.80;99.90;;;;;;5050890;28;20029;-52
2022/12/23 07:02:05;;;;;;;29.10;12.83;;;9.80;99.90;;;;;;5051033;28;20028;-52
2022/12/23 07:04:31;;;;;;;25.03;12.67;;;9.80;99.90;;;;;;5050674;28;20116;-51
2022/12/23 07:06:57;;;;;;;27.63;12.77;;;9.80;99.90;;;;;;5050433;28;20028;-50
2022/12/23 07:09:23;;;;;;;24.73;12.90;;;9.80;99.90;;;;;;5050494;28;20037;-51
2022/12/23 07:11:49;;;;;;;25.27;13.23;;;9.70;99.90;;;;;;5050447;28;20029;-53
2022/12/23 07:14:14;;;;;;;30.00;13.43;;;9.70;99.90;;;;;;5050659;28;20569;-50
2022/12/23 07:16:40;;;;;;;27.87;13.10;;;9.70;99.90;;;;;;5050681;28;20041;-51
2022/12/23 07:19:06;;;;;;;25.93;13.27;;;9.70;99.90;;;;;;5050228;28;20025;-50
2022/12/23 07:21:33;;;;;;;28.40;13.53;;;9.70;99.90;;;;;;5050424;28;20382;-51
2022/12/23 07:23:59;;;;;;;31.77;14.33;;;9.70;99.90;;;;;;5049836;28;20028;-51
2022/12/23 07:26:24;;;;;;;33.03;14.57;;;9.70;99.90;;;;;;5050164;28;20029;-50
2022/12/23 07:28:50;;;;;;;33.83;14.60;;;9.70;99.90;;;;;;5050519;28;20057;-52
2022/12/23 07:31:16;;;;;;;30.67;14.63;;;9.60;99.90;;;;;;5050429;28;20067;-49
2022/12/23 07:33:41;;;;;;;30.03;14.13;;;9.60;99.90;;;;;;5050533;28;20052;-49
2022/12/23 07:36:07;;;;;;;29.00;13.10;;;9.70;99.90;;;;;;5050303;28;20421;-49
2022/12/23 07:38:33;;;;;;;30.23;13.90;;;9.70;99.90;;;;;;5050023;28;20048;-50
2022/12/23 07:40:59;;;;;;;27.27;12.63;;;9.70;99.90;;;;;;5050024;28;20041;-49
2022/12/23 07:43:25;;;;;;;27.33;13.17;;;9.70;99.90;;;;;;5050414;28;20040;-52
2022/12/23 07:45:50;;;;;;;25.93;13.33;;;9.60;99.90;;;;;;5048993;28;20092;-49
2022/12/23 07:48:16;;;;;;;33.17;12.60;;;9.70;99.90;;;;;;5049837;28;20086;-50
2022/12/23 07:50:41;;;;;;;40.13;15.10;;;9.70;99.90;;;;;;5049918;28;20029;-51
2022/12/23 07:53:07;;;;;;;32.97;12.80;;;9.70;99.90;;;;;;5050188;28;20519;-49
2022/12/23 07:55:33;;;;;;;32.77;13.20;;;9.60;99.90;;;;;;5050070;28;20029;-51
2022/12/23 07:57:59;;;;;;;32.10;13.87;;;9.60;99.90;;;;;;5049923;28;20397;-51
2022/12/23 08:00:24;;;;;;;28.80;11.70;;;9.60;99.90;;;;;;5049677;28;20033;-48
2022/12/23 08:02:50;;;;;;;28.20;12.13;;;9.70;99.90;;;;;;5050413;28;20061;-52
2022/12/23 08:05:17;;;;;;;29.13;12.47;;;9.60;99.90;;;;;;5050052;28;20025;-51
2022/12/23 08:07:44;;;;;;;26.07;12.70;;;9.60;99.90;;;;;;5049838;28;20112;-50
2022/12/23 08:10:10;;;;;;;29.53;12.57;;;9.70;99.90;;;;;;5049626;28;20068;-48
2022/12/23 08:12:36;;;;;;;30.47;12.77;;;9.60;99.90;;;;;;5050002;28;20044;-51
2022/12/23 08:15:01;;;;;;;29.33;13.47;;;9.70;99.90;;;;;;5049890;28;20033;-51
2022/12/23 08:17:28;;;;;;;29.70;12.03;;;9.60;99.90;;;;;;5049666;28;20115;-47
2022/12/23 08:19:54;;;;;;;27.23;11.60;;;9.60;99.90;;;;;;5049605;28;20029;-51
2022/12/23 08:22:20;;;;;;;31.07;14.83;;;9.70;99.90;;;;;;5049772;28;20029;-51
2022/12/23 08:24:46;;;;;;;31.13;14.10;;;9.60;99.90;;;;;;5050414;28;20473;-50
2022/12/23 08:27:12;;;;;;;30.00;12.37;;;9.70;99.90;;;;;;5049755;28;20029;-50
2022/12/23 08:29:40;;;;;;;31.60;13.53;;;9.70;99.90;;;;;;5049800;28;20033;-51
2022/12/23 08:32:07;;;;;;;31.15;12.57;;;9.70;99.90;;;;;;5049828;28;20385;-50
2022/12/23 08:34:32;;;;;;;25.37;11.23;;;9.70;99.90;;;;;;5050229;28;20064;-51
2022/12/23 08:36:58;;;;;;;24.03;11.97;;;9.70;99.90;;;;;;5053331;28;20056;-50
2022/12/23 08:39:24;;;;;;;22.73;10.87;;;9.70;99.90;;;;;;5052915;28;20393;-51
2022/12/23 08:41:50;;;;;;;27.57;11.80;;;9.70;99.90;;;;;;5065562;22;20145;-56
2022/12/23 08:44:16;;;;;;;27.60;12.57;;;9.70;99.90;;;;;;5053429;28;20060;-55
2022/12/23 08:46:42;;;;;;;29.90;12.50;;;9.80;99.90;;;;;;5053330;28;20035;-55
2022/12/23 08:49:08;;;;;;;28.50;12.23;;;9.80;99.90;;;;;;5053290;28;20241;-56
2022/12/23 08:51:35;;;;;;;25.10;13.07;;;9.80;99.90;;;;;;5053228;28;20043;-53
2022/12/23 08:54:02;;;;;;;25.93;12.77;;;9.80;99.90;;;;;;5053307;28;20550;-54
2022/12/23 08:56:33;;;;;;;27.83;12.03;;;9.80;99.90;;;;;;5053024;28;20044;-54
2022/12/23 08:58:59;;;;;;;27.70;12.83;;;9.80;99.90;;;;;;5052906;28;20036;-56
2022/12/23 09:01:28;;;;;;;30.80;13.43;;;9.90;99.90;;;;;;5053015;28;20082;-52
2022/12/23 09:03:54;;;;;;;27.58;12.60;;;9.80;99.90;;;;;;5053118;28;20108;-54
2022/12/23 09:06:30;;;;;;;30.10;13.83;;;9.90;99.90;;;;;;5052782;28;20121;-56
2022/12/23 09:08:56;;;;;;;26.10;12.93;;;9.90;99.90;;;;;;5053043;28;20436;-52
2022/12/23 09:11:25;;;;;;;29.73;14.37;;;9.90;99.90;;;;;;5053040;28;20052;-55
2022/12/23 09:13:50;;;;;;;32.67;15.53;;;9.90;99.90;;;;;;5052980;28;20043;-56
2022/12/23 09:16:17;;;;;;;31.13;15.13;;;9.90;99.90;;;;;;5052748;28;20021;-52
2022/12/23 09:18:43;;;;;;;33.63;15.30;;;9.80;99.90;;;;;;5052894;28;20021;-56
2022/12/23 09:21:17;;;;;;;35.63;15.57;;;9.80;99.90;;;;;;5051623;28;20567;-55
2022/12/23 09:23:43;;;;;;;36.67;16.37;;;9.80;99.90;;;;;;5053027;28;20036;-55
2022/12/23 09:26:10;;;;;;;33.83;14.37;;;9.80;99.90;;;;;;5052645;28;20029;-55
2022/12/23 09:28:38;;;;;;;30.07;14.40;;;9.80;99.90;;;;;;5052269;28;20033;-54
2022/12/23 09:31:08;;;;;;;30.47;14.50;;;9.80;99.90;;;;;;5052483;28;20036;-55
2022/12/23 09:33:34;;;;;;;29.97;13.73;;;9.80;99.90;;;;;;5052346;28;20040;-52
2022/12/23 09:36:00;;;;;;;30.10;14.87;;;9.80;99.90;;;;;;5052444;28;20180;-53
2022/12/23 09:38:26;;;;;;;28.67;13.10;;;9.80;99.90;;;;;;5052340;28;20032;-54
2022/12/23 09:40:52;;;;;;;28.10;13.43;;;9.90;99.90;;;;;;5052095;28;20036;-55
2022/12/23 09:43:32;;;;;;;21.90;11.63;;;9.90;99.90;;;;;;5052380;28;20048;-54
2022/12/23 09:46:07;;;;;;;27.53;13.00;;;9.90;99.90;;;;;;5051903;28;20413;-55
2022/12/23 09:48:38;;;;;;;24.63;12.47;;;9.90;99.90;;;;;;5051649;28;20029;-54
2022/12/23 09:51:04;;;;;;;22.23;12.07;;;9.90;99.90;;;;;;5052166;28;20045;-53
2022/12/23 09:54:02;;;;;;;27.10;11.30;;;9.90;99.90;;;;;;5052227;28;20497;-52
2022/12/23 09:56:41;;;;;;;23.33;10.97;;;9.90;99.90;;;;;;5051911;28;20431;-52
2022/12/23 09:59:24;;;;;;;;;;;10.00;99.90;;;;;;5052480;28;20029;-55
2022/12/23 10:02:11;;;;;;;28.17;12.20;;;9.90;99.90;;;;;;5051934;28;20376;-53
2022/12/23 10:04:45;;;;;;;23.20;11.27;;;9.90;99.90;;;;;;5051759;28;20508;-51
2022/12/23 10:07:34;;;;;;;27.20;11.37;;;9.90;99.90;;;;;;5051859;28;20025;-54
2022/12/23 10:10:13;;;;;;;24.52;11.63;;;9.90;99.90;;;;;;5051700;28;20491;-53
2022/12/23 10:12:43;;;;;;;27.20;12.63;;;9.90;99.90;;;;;;5051648;28;20560;-56
2022/12/23 10:15:24;;;;;;;24.10;11.30;;;9.90;99.90;;;;;;5051740;28;20485;-53
2022/12/23 10:17:55;;;;;;;23.03;12.23;;;9.90;99.90;;;;;;5051639;28;20033;-55
2022/12/23 10:20:47;;;;;;;22.90;11.00;;;9.90;99.90;;;;;;5051463;28;20442;-53
2022/12/23 10:23:16;;;;;;;26.43;11.60;;;9.90;99.90;;;;;;5043883;28;20385;-54
2022/12/23 10:25:52;;;;;;;21.97;11.47;;;9.90;99.90;;;;;;5051549;28;20481;-52
2022/12/23 10:28:18;;;;;;;19.60;10.80;;;9.90;99.90;;;;;;5051405;28;20355;-52
2022/12/23 10:31:08;;;;;;;24.13;11.57;;;9.90;99.90;;;;;;5049780;28;20051;-51
2022/12/23 10:34:01;;;;;;;22.43;11.70;;;9.90;99.90;;;;;;5050760;28;20460;-55
2022/12/23 10:36:45;;;;;;;23.37;12.63;;;9.90;99.90;;;;;;5051076;28;20037;-55
2022/12/23 10:39:44;;;;;;;26.43;13.63;;;9.90;99.90;;;;;;5050995;28;20037;-54
2022/12/23 10:42:32;;;;;;;25.93;11.73;;;9.90;99.90;;;;;;5048640;28;20433;-54
2022/12/23 10:45:29;;;;;;;23.77;11.47;;;10.00;99.90;;;;;;5051138;28;20536;-56
2022/12/23 10:48:19;;;;;;;23.20;11.20;;;10.00;99.90;;;;;;5050961;28;20112;-55
2022/12/23 10:51:00;;;;;;;25.33;10.97;;;10.10;99.90;;;;;;5051088;28;20037;-54
2022/12/23 10:53:49;;;;;;;20.70;10.10;;;10.00;99.90;;;;;;5051027;28;20032;-55
2022/12/23 10:56:15;;;;;;;;;;;10.00;99.90;;;;;;5051634;28;20040;-53
2022/12/23 10:58:43;;;;;;;25.67;11.23;;;10.00;99.90;;;;;;5050579;28;19908;-53
2022/12/23 11:01:13;;;;;;;21.15;10.88;;;10.00;99.90;;;;;;5050751;28;20117;-55
2022/12/23 11:03:44;;;;;;;21.43;11.33;;;10.10;99.90;;;;;;5050851;28;20025;-55
2022/12/23 11:06:11;;;;;;;23.60;11.33;;;10.20;99.90;;;;;;5050799;28;20039;-56
2022/12/23 11:08:38;;;;;;;20.00;11.03;;;10.10;99.90;;;;;;5050475;28;20375;-55
2022/12/23 11:11:05;;;;;;;22.30;11.30;;;10.10;99.90;;;;;;5050664;28;20390;-56
2022/12/23 11:13:34;;;;;;;24.60;11.47;;;10.20;99.90;;;;;;5050520;28;20052;-55
2022/12/23 11:16:21;;;;;;;26.00;11.32;;;10.20;99.90;;;;;;5050713;28;20036;-55
2022/12/23 11:18:58;;;;;;;28.80;12.20;;;10.20;99.90;;;;;;5050708;28;20442;-53
2022/12/23 11:21:25;;;;;;;20.90;10.43;;;10.10;99.90;;;;;;5050511;28;20031;-55
2022/12/23 11:24:18;;;;;;;19.70;10.13;;;10.20;99.90;;;;;;5050463;28;20035;-54
2022/12/23 11:26:46;;;;;;;17.77;9.73;;;10.20;99.90;;;;;;5050267;28;20025;-53
2022/12/23 11:29:29;;;;;;;18.10;9.93;;;10.30;99.90;;;;;;5050390;28;20409;-56
2022/12/23 11:31:55;;;;;;;17.83;9.20;;;10.30;99.90;;;;;;5050509;28;20056;-56
2022/12/23 11:34:24;;;;;;;19.67;9.77;;;10.20;99.90;;;;;;5050420;28;20033;-57
2022/12/23 11:36:55;;;;;;;18.02;9.10;;;10.20;99.90;;;;;;5050300;28;20116;-56
2022/12/23 11:39:33;;;;;;;17.17;8.87;;;10.20;99.90;;;;;;5050431;28;20047;-54
2022/12/23 11:42:12;;;;;;;13.43;8.37;;;10.20;99.90;;;;;;5050153;28;20037;-54
2022/12/23 11:44:41;;;;;;;;;;;10.20;99.90;;;;;;5050855;28;20272;-55
2022/12/23 11:47:27;;;;;;;13.88;7.15;;;10.20;99.90;;;;;;5050204;28;19909;-53
2022/12/23 11:49:59;;;;;;;17.30;8.13;;;10.10;99.90;;;;;;5050116;28;20028;-57
2022/12/23 11:52:29;;;;;;;16.63;7.47;;;10.10;99.90;;;;;;5050223;28;20470;-56
2022/12/23 11:54:57;;;;;;;12.57;7.03;;;10.20;99.90;;;;;;5050299;28;20536;-54
2022/12/23 11:57:31;;;;;;;14.20;6.70;;;10.20;99.90;;;;;;5050361;28;20041;-53
2022/12/23 12:00:01;;;;;;;11.17;6.47;;;10.20;99.90;;;;;;5049900;28;20029;-55
2022/12/23 12:02:41;;;;;;;14.45;7.15;;;10.30;99.90;;;;;;5050235;28;20075;-54
2022/12/23 12:05:31;;;;;;;12.33;5.70;;;10.30;99.90;;;;;;5050025;28;20499;-53
2022/12/23 12:08:08;;;;;;;11.40;6.37;;;10.30;99.90;;;;;;5049993;28;20036;-55
2022/12/23 12:10:37;;;;;;;14.20;7.20;;;10.20;99.90;;;;;;5052027;28;20292;-55
2022/12/23 12:13:06;;;;;;;23.70;15.15;;;10.20;99.90;;;;;;5054048;28;20029;-55
2022/12/23 12:15:47;;;;;;;;;;;10.20;99.90;;;;;;5054530;28;20448;-56
2022/12/23 12:18:16;;;;;;;53.20;30.63;;;10.20;99.90;;;;;;5053675;28;19919;-55
2022/12/23 12:20:49;;;;;;;42.00;26.53;;;10.20;99.90;;;;;;5053643;28;20033;-55
2022/12/23 12:23:30;;;;;;;37.73;22.77;;;10.20;99.90;;;;;;5054205;28;20087;-55
2022/12/23 12:26:04;;;;;;;29.07;16.83;;;10.10;99.90;;;;;;5053875;28;20033;-52
2022/12/23 12:28:40;;;;;;;22.63;12.50;;;10.20;99.90;;;;;;5053862;28;20087;-57
2022/12/23 12:31:34;;;;;;;19.53;10.90;;;10.10;99.90;;;;;;5053911;28;20024;-54
2022/12/23 12:34:33;;;;;;;14.70;7.63;;;10.10;99.90;;;;;;5054187;28;20420;-55
2022/12/23 12:37:20;;;;;;;12.85;6.47;;;10.10;99.90;;;;;;5049353;28;20060;-53
2022/12/23 12:40:00;;;;;;;10.30;5.57;;;10.00;99.90;;;;;;5053288;28;20102;-54
2022/12/23 12:42:40;;;;;;;9.75;4.63;;;10.00;99.90;;;;;;5053413;28;20149;-53
2022/12/23 12:45:16;;;;;;;7.60;4.53;;;10.00;99.90;;;;;;5053447;28;20033;-51
2022/12/23 12:48:21;;;;;;;9.20;5.33;;;10.00;99.90;;;;;;5053216;28;20060;-55
2022/12/23 12:50:56;;;;;;;13.17;6.77;;;10.00;99.90;;;;;;5053314;28;20136;-55
2022/12/23 12:53:23;;;;;;;17.20;9.43;;;9.90;99.90;;;;;;5053332;28;20397;-54
2022/12/23 12:55:56;;;;;;;22.53;14.50;;;9.90;99.90;;;;;;5053517;28;20366;-56
2022/12/23 12:58:23;;;;;;;25.70;17.87;;;9.90;99.90;;;;;;5053034;28;20033;-55
2022/12/23 13:01:12;;;;;;;18.13;12.30;;;9.80;99.90;;;;;;5052797;28;20060;-54
2022/12/23 13:03:52;;;;;;;13.68;7.28;;;9.70;99.90;;;;;;5033583;28;20046;-55
2022/12/23 13:06:28;;;;;;;14.20;6.03;;;9.70;99.90;;;;;;5052953;28;20036;-54
2022/12/23 13:09:16;;;;;;;14.37;5.77;;;9.70;99.90;;;;;;5052945;28;20432;-54
2022/12/23 13:11:55;;;;;;;12.47;5.63;;;9.60;99.90;;;;;;5051628;28;20474;-55
2022/12/23 13:14:47;;;;;;;13.57;5.72;;;9.60;99.90;;;;;;5053000;28;20029;-50
2022/12/23 13:17:18;;;;;;;13.53;5.67;;;9.60;99.90;;;;;;5053034;28;20063;-52
2022/12/23 13:20:09;;;;;;;32.43;17.13;;;9.60;99.90;;;;;;5052534;28;20029;-53
2022/12/23 13:22:37;;;;;;;15.60;6.80;;;9.60;99.90;;;;;;5051711;28;20300;-52
2022/12/23 13:25:21;;;;;;;12.13;5.10;;;9.50;99.90;;;;;;5052805;28;20481;-52
2022/12/23 13:28:24;;;;;;;15.07;5.87;;;9.50;99.90;;;;;;5052441;28;20279;-55